createdAt,value
2023-03-21T00:02:29.767Z,79.61
2023-03-21T00:05:32.696Z,79.16
2023-03-21T00:08:35.788Z,79.35
2023-03-21T00:11:38.565Z,79.74
2023-03-21T00:14:45.000Z,79.82
2023-03-21T00:17:50.971Z,79.63
2023-03-21T00:24:24.112Z,80.05
2023-03-21T00:27:45.301Z,80.55
2023-03-21T00:30:51.106Z,80.96
2023-03-21T00:33:53.717Z,81.74
2023-03-21T00:36:56.387Z,82.15
2023-03-21T00:39:59.169Z,82.11
2023-03-21T00:43:02.092Z,82.26
2023-03-21T00:46:05.142Z,82.89
2023-03-21T00:49:08.268Z,83.56
2023-03-21T00:52:24.781Z,83.20
2023-03-21T00:55:34.021Z,83.58
2023-03-21T00:58:36.861Z,83.34
2023-03-21T01:01:40.127Z,83.39
2023-03-21T01:04:42.866Z,83.02
2023-03-21T01:07:46.342Z,83.01
2023-03-21T01:10:49.924Z,82.87
2023-03-21T01:13:59.645Z,83.04
2023-03-21T01:17:04.888Z,82.87
2023-03-21T01:20:08.273Z,83.07
2023-03-21T01:23:15.516Z,83.12
2023-03-21T01:26:18.268Z,83.87
2023-03-21T01:29:21.230Z,83.92
2023-03-21T01:32:23.965Z,84.11
2023-03-21T01:35:27.035Z,84.30
2023-03-21T01:38:31.344Z,85.01
2023-03-21T01:41:42.886Z,84.58
2023-03-21T01:45:05.347Z,84.89
2023-03-21T01:48:08.113Z,85.22
2023-03-21T01:51:12.289Z,84.87
2023-03-21T01:54:19.552Z,84.89
2023-03-21T01:57:41.062Z,85.27
2023-03-21T02:00:48.005Z,84.76
2023-03-21T02:03:52.288Z,85.02
2023-03-21T02:07:03.870Z,85.20
2023-03-21T02:10:10.363Z,85.05
2023-03-21T02:13:13.172Z,85.31
2023-03-21T02:16:33.590Z,85.37
2023-03-21T02:19:59.441Z,85.55
2023-03-21T02:23:28.957Z,85.31
2023-03-21T02:27:03.962Z,85.90
2023-03-21T02:30:52.287Z,86.09
2023-03-21T02:34:26.096Z,86.47
2023-03-21T02:38:00.162Z,86.75
2023-03-21T02:41:40.034Z,86.97
2023-03-21T02:45:02.421Z,86.54
2023-03-21T02:48:26.839Z,86.86
2023-03-21T02:51:37.940Z,86.82
2023-03-21T02:54:48.336Z,86.75
2023-03-21T02:57:53.332Z,87.14
2023-03-21T03:00:56.573Z,87.06
2023-03-21T03:04:00.646Z,87.75
2023-03-21T03:07:41.716Z,88.15
2023-03-21T03:11:07.320Z,88.55
2023-03-21T03:14:50.052Z,89.43
2023-03-21T03:18:28.657Z,89.77
2023-03-21T03:21:42.461Z,89.90
2023-03-21T03:24:49.940Z,90.15
2023-03-21T03:27:53.385Z,91.14
2023-03-21T03:31:08.006Z,91.52
2023-03-21T03:34:18.136Z,91.34
2023-03-21T03:37:26.476Z,90.71
2023-03-21T03:40:41.293Z,91.26
2023-03-21T03:43:48.917Z,91.37
2023-03-21T03:47:15.131Z,90.89
2023-03-21T03:50:30.269Z,90.87
2023-03-21T03:53:32.937Z,91.14
2023-03-21T03:56:36.747Z,90.74
2023-03-21T03:59:42.176Z,90.91
2023-03-21T04:02:46.079Z,92.32
2023-03-21T04:05:48.828Z,92.33
2023-03-21T04:08:52.684Z,92.42
2023-03-21T04:11:55.638Z,93.28
2023-03-21T04:15:08.183Z,93.94
2023-03-21T04:18:15.841Z,92.80
2023-03-21T04:21:18.595Z,94.25
2023-03-21T04:24:22.412Z,95.00
2023-03-21T04:27:25.323Z,95.71
2023-03-21T04:30:28.077Z,96.14
2023-03-21T04:33:30.751Z,96.90
2023-03-21T04:36:39.550Z,97.33
2023-03-21T04:39:43.070Z,98.64
2023-03-21T04:42:46.757Z,98.54
2023-03-21T04:45:50.758Z,99.40
2023-03-21T04:48:53.558Z,99.56
2023-03-21T04:51:56.323Z,99.41
2023-03-21T04:54:59.118Z,98.92
2023-03-21T04:58:05.354Z,98.64
2023-03-21T05:01:08.893Z,99.55
2023-03-21T05:04:13.671Z,99.51
2023-03-21T05:07:16.386Z,100.00
2023-03-21T05:10:19.201Z,99.07
2023-03-21T05:13:21.901Z,100.00
2023-03-21T05:16:27.205Z,99.80
2023-03-21T05:19:35.699Z,99.83
2023-03-21T05:22:40.716Z,100.00
2023-03-21T05:25:43.365Z,100.00
2023-03-21T05:28:48.324Z,100.00
2023-03-21T05:31:51.810Z,100.00
2023-03-21T05:34:54.503Z,100.00
2023-03-21T05:37:57.334Z,100.00
2023-03-21T05:40:59.949Z,100.00
2023-03-21T05:44:02.830Z,100.00
2023-03-21T05:47:06.325Z,100.00
2023-03-21T05:50:11.834Z,100.00
2023-03-21T05:53:14.658Z,100.00
2023-03-21T05:56:17.311Z,100.00
2023-03-21T05:59:20.136Z,100.00
2023-03-21T06:02:22.866Z,99.98
2023-03-21T06:05:29.042Z,99.00
2023-03-21T06:08:32.423Z,97.81
2023-03-21T06:11:37.349Z,97.16
2023-03-21T06:14:40.090Z,96.07
2023-03-21T06:17:42.850Z,95.11
2023-03-21T06:20:46.593Z,92.86
2023-03-21T06:23:52.811Z,91.83
2023-03-21T06:26:56.276Z,90.26
2023-03-21T06:29:59.090Z,89.38
2023-03-21T06:33:01.877Z,87.90
2023-03-21T06:36:05.404Z,86.97
2023-03-21T06:39:09.002Z,86.08
2023-03-21T06:42:15.147Z,84.64
2023-03-21T06:45:18.727Z,83.82
2023-03-21T06:48:24.836Z,82.19
2023-03-21T06:51:28.558Z,81.46
2023-03-21T06:54:31.465Z,81.58
2023-03-21T06:57:34.190Z,81.22
2023-03-21T07:00:36.989Z,79.86
2023-03-21T07:03:40.541Z,79.42
2023-03-21T07:06:46.532Z,78.80
2023-03-21T07:09:52.421Z,74.86
2023-03-21T07:12:55.371Z,74.74
2023-03-21T07:15:58.622Z,75.07
2023-03-21T07:19:04.696Z,74.57
2023-03-21T07:22:07.774Z,74.07
2023-03-21T07:25:11.349Z,74.46
2023-03-21T07:28:14.230Z,73.14
2023-03-21T07:31:17.894Z,72.15
2023-03-21T07:34:20.927Z,71.45
2023-03-21T07:37:24.166Z,70.91
2023-03-21T07:40:26.825Z,71.13
2023-03-21T07:43:29.623Z,70.58
2023-03-21T07:46:32.486Z,70.71
2023-03-21T07:49:35.263Z,69.77
2023-03-21T07:52:38.491Z,68.51
2023-03-21T07:55:41.169Z,68.00
2023-03-21T07:58:44.185Z,66.30
2023-03-21T08:01:46.820Z,65.28
2023-03-21T08:04:49.784Z,65.40
2023-03-21T08:07:52.514Z,64.73
2023-03-21T08:10:55.423Z,63.88
2023-03-21T08:13:59.531Z,64.47
2023-03-21T08:17:02.366Z,63.58
2023-03-21T08:20:09.182Z,61.93
2023-03-21T08:23:12.048Z,61.60
2023-03-21T08:26:18.601Z,61.46
2023-03-21T08:29:21.924Z,60.05
2023-03-21T08:32:29.501Z,59.30
2023-03-21T08:35:32.346Z,59.49
2023-03-21T08:38:36.187Z,58.40
2023-03-21T08:41:39.043Z,58.41
2023-03-21T08:44:42.599Z,58.09
2023-03-21T08:47:46.167Z,58.77
2023-03-21T08:50:49.137Z,57.18
2023-03-21T08:53:52.326Z,57.73
2023-03-21T08:56:55.348Z,57.56
2023-03-21T08:59:58.147Z,56.44
2023-03-21T09:03:01.681Z,55.80
2023-03-21T09:06:06.066Z,55.29
2023-03-21T09:09:09.610Z,54.52
2023-03-21T09:12:12.518Z,54.05
2023-03-21T09:15:20.308Z,54.39
2023-03-21T09:18:45.405Z,52.60
2023-03-21T09:21:48.726Z,51.45
2023-03-21T09:24:53.535Z,50.37
2023-03-21T09:27:56.739Z,50.59
2023-03-21T09:31:00.941Z,50.75
2023-03-21T09:34:04.152Z,50.35
2023-03-21T09:37:17.545Z,51.35
2023-03-21T09:40:45.073Z,51.04
2023-03-21T09:44:00.582Z,49.96
2023-03-21T09:47:21.944Z,49.15
2023-03-21T09:50:31.958Z,49.11
2023-03-21T09:53:40.375Z,48.42
2023-03-21T09:56:47.859Z,49.66
2023-03-21T09:59:53.803Z,47.85
2023-03-21T10:03:03.410Z,47.22
2023-03-21T10:06:16.665Z,45.18
2023-03-21T10:09:23.130Z,44.32
2023-03-21T10:12:30.963Z,44.57
2023-03-21T10:15:33.749Z,44.97
2023-03-21T10:18:36.836Z,45.89
2023-03-21T10:22:03.711Z,44.42
2023-03-21T10:25:14.807Z,46.68
2023-03-21T10:28:21.037Z,45.17
2023-03-21T10:31:26.639Z,44.92
2023-03-21T10:34:59.272Z,45.44
2023-03-21T10:38:06.474Z,44.52
2023-03-21T10:41:12.581Z,45.73
2023-03-21T10:44:19.623Z,45.45
2023-03-21T10:47:34.086Z,45.17
2023-03-21T10:50:37.307Z,46.79
2023-03-21T10:53:44.016Z,45.11
2023-03-21T10:57:01.285Z,44.60
2023-03-21T11:00:16.082Z,43.86
2023-03-21T11:03:25.671Z,45.68
2023-03-21T11:06:33.060Z,43.32
2023-03-21T11:09:44.682Z,40.70
2023-03-21T11:12:50.877Z,40.59
2023-03-21T11:16:04.198Z,40.53
2023-03-21T11:19:19.383Z,39.73
2023-03-21T11:22:24.439Z,38.99
2023-03-21T11:25:37.887Z,38.92
2023-03-21T11:28:42.130Z,36.64
2023-03-21T11:31:45.091Z,36.53
2023-03-21T11:34:54.076Z,35.61
2023-03-21T11:37:57.331Z,35.36
2023-03-21T11:41:02.527Z,34.89
2023-03-21T11:44:05.648Z,36.72
2023-03-21T11:47:11.403Z,38.69
2023-03-21T11:50:14.027Z,39.15
2023-03-21T11:53:45.084Z,40.69
2023-03-21T11:56:49.462Z,38.13
2023-03-21T11:59:58.917Z,38.13
2023-03-21T12:03:47.587Z,39.01
2023-03-21T12:07:01.590Z,42.79
2023-03-21T12:10:35.832Z,42.11
2023-03-21T12:14:11.053Z,42.68
2023-03-21T12:17:50.828Z,42.29
2023-03-21T12:21:17.360Z,41.37
2023-03-21T12:24:23.787Z,41.82
2023-03-21T12:27:30.936Z,42.40
2023-03-21T12:30:53.969Z,43.21
2023-03-21T12:34:19.128Z,44.10
2023-03-21T12:37:55.539Z,45.16
2023-03-21T12:41:18.045Z,45.54
2023-03-21T12:44:23.080Z,45.40
2023-03-21T12:47:28.909Z,45.59
2023-03-21T12:50:37.898Z,45.69
2023-03-21T12:53:53.218Z,46.52
2023-03-21T12:57:12.085Z,46.31
2023-03-21T13:00:28.846Z,45.22
2023-03-21T13:03:44.082Z,45.41
2023-03-21T13:06:48.722Z,46.35
2023-03-21T13:09:53.638Z,45.88
2023-03-21T13:13:02.721Z,44.80
2023-03-21T13:16:15.962Z,44.91
2023-03-21T13:19:43.085Z,45.00
2023-03-21T13:22:48.194Z,46.21
2023-03-21T13:25:53.077Z,45.91
2023-03-21T13:28:58.515Z,45.58
2023-03-21T13:32:45.223Z,45.34
2023-03-21T13:36:00.472Z,45.55
2023-03-21T13:39:07.000Z,45.20
2023-03-21T13:42:23.965Z,45.70
2023-03-21T13:45:48.275Z,45.00
2023-03-21T13:49:01.379Z,45.08
2023-03-21T13:52:11.134Z,45.28
2023-03-21T13:55:20.606Z,44.39
2023-03-21T13:58:43.117Z,43.65
2023-03-21T14:02:09.745Z,44.38
2023-03-21T14:05:22.279Z,43.28
2023-03-21T14:08:36.903Z,44.01
2023-03-21T14:11:44.544Z,45.46
2023-03-21T14:14:52.613Z,45.45
2023-03-21T14:18:03.392Z,45.09
2023-03-21T14:21:24.660Z,44.55
2023-03-21T14:24:27.837Z,44.49
2023-03-21T14:27:33.261Z,45.34
2023-03-21T14:30:41.263Z,45.96
2023-03-21T14:33:49.763Z,46.29
2023-03-21T14:36:59.335Z,45.87
2023-03-21T14:40:09.333Z,45.18
2023-03-21T14:43:15.145Z,46.01
2023-03-21T14:46:22.206Z,45.73
2023-03-21T14:49:27.369Z,46.75
2023-03-21T14:52:33.096Z,47.14
2023-03-21T14:55:43.016Z,47.40
2023-03-21T14:58:47.694Z,47.90
2023-03-21T15:01:51.679Z,47.95
2023-03-21T15:04:59.200Z,47.51
2023-03-21T15:08:23.377Z,47.06
2023-03-21T15:11:37.782Z,47.97
2023-03-21T15:14:42.078Z,47.99
2023-03-21T15:17:44.923Z,47.91
2023-03-21T15:20:49.940Z,47.92
2023-03-21T15:24:04.099Z,47.82
2023-03-21T15:27:13.048Z,48.25
2023-03-21T15:30:24.678Z,48.45
2023-03-21T15:33:27.477Z,49.06
2023-03-21T15:36:37.911Z,48.60
2023-03-21T15:39:41.288Z,48.63
2023-03-21T15:42:44.435Z,48.61
2023-03-21T15:45:56.097Z,48.59
2023-03-21T15:49:14.898Z,48.69
2023-03-21T15:52:18.120Z,48.39
2023-03-21T15:55:28.956Z,48.87
2023-03-21T15:58:37.266Z,48.85
2023-03-21T16:01:40.545Z,49.13
2023-03-21T16:04:57.492Z,49.08
2023-03-21T16:08:21.252Z,49.16
2023-03-21T16:11:25.762Z,49.32
2023-03-21T16:14:29.151Z,49.45
2023-03-21T16:17:37.863Z,49.70
2023-03-21T16:20:43.658Z,49.67
2023-03-21T16:23:47.700Z,50.03
2023-03-21T16:26:53.592Z,49.98
2023-03-21T16:29:56.348Z,50.13
2023-03-21T16:32:59.028Z,50.51
2023-03-21T16:36:03.092Z,51.66
2023-03-21T16:39:20.017Z,52.01
2023-03-21T16:42:22.826Z,52.23
2023-03-21T16:45:25.761Z,52.85
2023-03-21T16:48:28.528Z,53.63
2023-03-21T16:51:33.724Z,54.20
2023-03-21T16:54:36.428Z,54.58
2023-03-21T16:57:39.622Z,55.26
2023-03-21T17:00:43.173Z,55.81
2023-03-21T17:03:48.567Z,56.30
2023-03-21T17:06:53.393Z,57.17
2023-03-21T17:09:56.508Z,57.50
2023-03-21T17:12:59.787Z,58.04
2023-03-21T17:16:02.936Z,58.76
2023-03-21T17:19:12.214Z,59.29
2023-03-21T17:22:15.092Z,59.84
2023-03-21T17:25:18.768Z,60.43
2023-03-21T17:28:21.835Z,61.08
2023-03-21T17:31:26.230Z,62.09
2023-03-21T17:34:29.484Z,62.53
2023-03-21T17:37:34.553Z,62.93
2023-03-21T17:40:37.678Z,63.31
2023-03-21T17:43:41.231Z,63.93
2023-03-21T17:46:44.336Z,64.86
2023-03-21T17:49:47.471Z,65.26
2023-03-21T17:52:51.841Z,65.84
2023-03-21T17:55:54.551Z,65.84
2023-03-21T17:59:03.473Z,66.00
2023-03-21T18:02:06.439Z,66.37
2023-03-21T18:05:10.929Z,66.33
2023-03-21T18:08:14.075Z,67.64
2023-03-21T18:11:18.144Z,68.41
2023-03-21T18:14:27.830Z,69.27
2023-03-21T18:17:31.471Z,69.29
2023-03-21T18:23:57.169Z,69.95
2023-03-21T18:26:59.876Z,70.97
2023-03-21T18:30:41.322Z,71.30
2023-03-21T18:33:28.704Z,71.48
2023-03-21T18:36:31.813Z,72.32
2023-03-21T18:39:35.388Z,71.78
2023-03-21T18:42:40.146Z,72.41
2023-03-21T18:45:43.496Z,74.22
2023-03-21T18:48:47.987Z,75.04
2023-03-21T18:51:52.729Z,74.69
2023-03-21T18:54:55.748Z,75.29
2023-03-21T18:57:58.377Z,75.98
2023-03-21T19:01:04.344Z,76.14
2023-03-21T19:04:29.731Z,76.78
2023-03-21T19:07:31.697Z,76.59
2023-03-21T19:10:36.785Z,76.44
2023-03-21T19:13:41.160Z,75.89
2023-03-21T19:17:18.369Z,76.65
2023-03-21T19:20:08.767Z,77.71
2023-03-21T19:23:12.105Z,78.00
2023-03-21T19:26:17.772Z,77.72
2023-03-21T19:29:20.906Z,78.30
2023-03-21T19:32:24.249Z,78.16
2023-03-21T19:35:28.881Z,79.53
2023-03-21T19:38:34.866Z,79.68
2023-03-21T19:41:40.556Z,78.44
2023-03-21T19:44:43.863Z,79.81
2023-03-21T19:47:47.629Z,80.74
2023-03-21T19:51:20.477Z,79.54
2023-03-21T19:54:15.052Z,80.34
2023-03-21T19:57:19.738Z,81.65
2023-03-21T20:00:24.195Z,81.25
2023-03-21T20:03:27.050Z,81.48
2023-03-21T20:06:30.120Z,81.57
2023-03-21T20:09:52.469Z,80.98
2023-03-21T20:12:56.875Z,81.52
2023-03-21T20:16:03.775Z,81.05
2023-03-21T20:19:10.334Z,80.91
2023-03-21T20:22:24.859Z,80.69
2023-03-21T20:25:33.937Z,81.58
2023-03-21T20:28:38.277Z,81.71
2023-03-21T20:31:41.723Z,82.86
2023-03-21T20:34:46.247Z,82.70
2023-03-21T20:37:51.234Z,81.87
2023-03-21T20:40:54.321Z,82.30
2023-03-21T20:47:23.843Z,82.75
2023-03-21T20:50:27.871Z,82.66
2023-03-21T20:53:31.944Z,84.05
2023-03-21T20:56:35.475Z,83.31
2023-03-21T20:59:38.792Z,83.80
2023-03-21T21:02:45.916Z,83.66
2023-03-21T21:05:49.205Z,84.06
2023-03-21T21:08:52.278Z,82.61
2023-03-21T21:12:06.510Z,83.72
2023-03-21T21:15:14.352Z,83.53
2023-03-21T21:18:17.182Z,82.63
2023-03-21T21:21:20.325Z,84.50
2023-03-21T21:24:22.844Z,85.03
2023-03-21T21:27:26.239Z,84.30
2023-03-21T21:33:34.533Z,83.57
2023-03-21T21:36:37.446Z,83.12
2023-03-21T21:39:40.375Z,85.04
2023-03-21T21:42:44.424Z,84.31
2023-03-21T21:45:47.990Z,85.73
2023-03-21T21:48:51.765Z,86.38
2023-03-21T21:51:54.533Z,85.64
2023-03-21T21:54:57.338Z,86.11
2023-03-21T21:58:01.547Z,86.43
2023-03-21T22:04:08.539Z,85.71
2023-03-21T22:07:14.799Z,85.16
2023-03-21T22:10:17.992Z,84.99
2023-03-21T22:13:20.640Z,85.01
2023-03-21T22:16:23.400Z,87.82
2023-03-21T22:19:27.839Z,87.13
2023-03-21T22:22:30.505Z,87.19
2023-03-21T22:28:41.458Z,87.29
2023-03-21T22:31:45.531Z,86.52
2023-03-21T22:34:48.248Z,87.73
2023-03-21T22:37:51.089Z,87.86
2023-03-21T22:40:56.057Z,87.05
2023-03-21T22:43:58.787Z,87.26
2023-03-21T22:47:06.531Z,87.66
2023-03-21T22:50:09.726Z,87.98
2023-03-21T22:53:12.557Z,87.58
2023-03-21T22:56:15.497Z,86.38
2023-03-21T22:59:19.171Z,86.20
2023-03-21T23:02:21.846Z,86.44
2023-03-21T23:05:24.699Z,88.65
2023-03-21T23:08:27.967Z,86.79
2023-03-21T23:11:30.696Z,86.24
2023-03-21T23:14:33.385Z,86.17
2023-03-21T23:17:36.372Z,86.97
2023-03-21T23:20:39.337Z,87.70
2023-03-21T23:23:44.026Z,88.34
2023-03-21T23:26:46.834Z,87.02
2023-03-21T23:29:49.911Z,87.83
2023-03-21T23:32:52.682Z,88.77
2023-03-21T23:35:55.648Z,87.63
2023-03-21T23:38:58.754Z,86.33
2023-03-21T23:45:03.048Z,87.75
2023-03-21T23:48:06.130Z,89.04
2023-03-21T23:51:10.825Z,88.48
2023-03-21T23:54:13.608Z,87.37
2023-03-21T23:57:17.367Z,86.28
